sensor_id;sensor_type;location;lat;lon;timestamp;pressure;altitude;pressure_sealevel;temperature;humidity
39243;BME280;29823;47.404;8.566;2022-11-23T00:00:45;95246.16;;;5.97;100.00
39243;BME280;29823;47.404;8.566;2022-11-23T00:03:14;95250.97;;;6.00;100.00
39243;BME280;29823;47.404;8.566;2022-11-23T00:05:42;95241.91;;;5.96;100.00
39243;BME280;29823;47.404;8.566;2022-11-23T00:08:10;95248.47;;;5.94;100.00
39243;BME280;29823;47.404;8.566;2022-11-23T00:10:37;95246.66;;;5.83;100.00
39243;BME280;29823;47.404;8.566;2022-11-23T00:13:07;95246.50;;;5.89;100.00
39243;BME280;29823;47.404;8.566;2022-11-23T00:15:34;95231.53;;;5.83;100.00
39243;BME280;29823;47.404;8.566;2022-11-23T00:18:02;95243.41;;;5.81;100.00
39243;BME280;29823;47.404;8.566;2022-11-23T00:20:30;95243.03;;;5.77;100.00
39243;BME280;29823;47.404;8.566;2022-11-23T00:22:58;95243.16;;;5.94;100.00
39243;BME280;29823;47.404;8.566;2022-11-23T00:25:26;95240.63;;;5.99;100.00
39243;BME280;29823;47.404;8.566;2022-11-23T00:27:53;95235.66;;;6.02;100.00
39243;BME280;29823;47.404;8.566;2022-11-23T00:30:22;95239.09;;;6.14;100.00
39243;BME280;29823;47.404;8.566;2022-11-23T00:32:50;95234.00;;;6.13;100.00
39243;BME280;29823;47.404;8.566;2022-11-23T00:35:18;95238.63;;;6.17;100.00
39243;BME280;29823;47.404;8.566;2022-11-23T00:37:46;95235.88;;;6.12;100.00
39243;BME280;29823;47.404;8.566;2022-11-23T00:40:14;95239.09;;;6.14;100.00
39243;BME280;29823;47.404;8.566;2022-11-23T00:42:42;95235.75;;;6.07;100.00
39243;BME280;29823;47.404;8.566;2022-11-23T00:45:10;95233.09;;;6.07;100.00
39243;BME280;29823;47.404;8.566;2022-11-23T00:47:39;95236.44;;;6.03;100.00
39243;BME280;29823;47.404;8.566;2022-11-23T00:50:07;95237.25;;;6.03;100.00
39243;BME280;29823;47.404;8.566;2022-11-23T00:52:35;95236.69;;;6.01;100.00
39243;BME280;29823;47.404;8.566;2022-11-23T00:55:04;95241.41;;;5.99;100.00
39243;BME280;29823;47.404;8.566;2022-11-23T00:57:32;95245.69;;;6.00;100.00
39243;BME280;29823;47.404;8.566;2022-11-23T00:59:59;95244.91;;;5.88;100.00
39243;BME280;29823;47.404;8.566;2022-11-23T01:02:27;95240.63;;;5.87;100.00
39243;BME280;29823;47.404;8.566;2022-11-23T01:04:56;95240.38;;;5.77;100.00
39243;BME280;29823;47.404;8.566;2022-11-23T01:07:24;95240.88;;;5.74;100.00
39243;BME280;29823;47.404;8.566;2022-11-23T01:09:52;95247.06;;;5.68;100.00
39243;BME280;29823;47.404;8.566;2022-11-23T01:12:20;95241.78;;;5.57;100.00
39243;BME280;29823;47.404;8.566;2022-11-23T01:14:47;95246.41;;;5.50;100.00
39243;BME280;29823;47.404;8.566;2022-11-23T01:17:15;95245.69;;;5.43;100.00
39243;BME280;29823;47.404;8.566;2022-11-23T01:19:43;95247.09;;;5.34;100.00
39243;BME280;29823;47.404;8.566;2022-11-23T01:22:12;95241.06;;;5.27;100.00
39243;BME280;29823;47.404;8.566;2022-11-23T01:24:40;95253.72;;;5.13;100.00
39243;BME280;29823;47.404;8.566;2022-11-23T01:27:07;95249.13;;;5.09;100.00
39243;BME280;29823;47.404;8.566;2022-11-23T01:29:35;95244.50;;;4.93;100.00
39243;BME280;29823;47.404;8.566;2022-11-23T01:32:03;95244.50;;;4.93;100.00
39243;BME280;29823;47.404;8.566;2022-11-23T01:34:31;95239.16;;;4.81;100.00
39243;BME280;29823;47.404;8.566;2022-11-23T01:36:59;95246.84;;;4.71;100.00
39243;BME280;29823;47.404;8.566;2022-11-23T01:39:28;95246.94;;;4.65;100.00
39243;BME280;29823;47.404;8.566;2022-11-23T01:41:56;95241.38;;;4.55;100.00
39243;BME280;29823;47.404;8.566;2022-11-23T01:44:27;95242.84;;;4.51;100.00
39243;BME280;29823;47.404;8.566;2022-11-23T01:46:57;95231.44;;;4.39;100.00
39243;BME280;29823;47.404;8.566;2022-11-23T01:49:26;95248.91;;;4.40;100.00
39243;BME280;29823;47.404;8.566;2022-11-23T01:51:58;95238.53;;;4.27;100.00
39243;BME280;29823;47.404;8.566;2022-11-23T01:54:34;95248.56;;;4.36;100.00
39243;BME280;29823;47.404;8.566;2022-11-23T01:57:06;95254.44;;;4.38;100.00
39243;BME280;29823;47.404;8.566;2022-11-23T01:59:36;95244.88;;;4.37;100.00
39243;BME280;29823;47.404;8.566;2022-11-23T02:02:04;95248.38;;;4.49;100.00
39243;BME280;29823;47.404;8.566;2022-11-23T02:04:35;95249.47;;;4.30;100.00
39243;BME280;29823;47.404;8.566;2022-11-23T02:07:05;95247.38;;;4.32;100.00
39243;BME280;29823;47.404;8.566;2022-11-23T02:09:35;95253.56;;;4.26;100.00
39243;BME280;29823;47.404;8.566;2022-11-23T02:12:08;95247.09;;;4.22;100.00
39243;BME280;29823;47.404;8.566;2022-11-23T02:14:37;95240.13;;;4.28;100.00
39243;BME280;29823;47.404;8.566;2022-11-23T02:17:05;95243.22;;;4.25;100.00
39243;BME280;29823;47.404;8.566;2022-11-23T02:19:40;95241.38;;;4.25;100.00
39243;BME280;29823;47.404;8.566;2022-11-23T02:22:21;95245.97;;;4.18;100.00
39243;BME280;29823;47.404;8.566;2022-11-23T02:24:53;95245.22;;;4.11;100.00
39243;BME280;29823;47.404;8.566;2022-11-23T02:27:23;95252.25;;;4.17;100.00
39243;BME280;29823;47.404;8.566;2022-11-23T02:29:53;95257.28;;;4.07;100.00
39243;BME280;29823;47.404;8.566;2022-11-23T02:32:22;95244.91;;;4.01;100.00
39243;BME280;29823;47.404;8.566;2022-11-23T02:34:51;95257.19;;;3.96;100.00
39243;BME280;29823;47.404;8.566;2022-11-23T02:37:18;95253.97;;;3.94;100.00
39243;BME280;29823;47.404;8.566;2022-11-23T02:39:48;95251.97;;;3.89;100.00
39243;BME280;29823;47.404;8.566;2022-11-23T02:42:17;95258.81;;;3.79;100.00
39243;BME280;29823;47.404;8.566;2022-11-23T02:44:52;95250.84;;;3.85;100.00
39243;BME280;29823;47.404;8.566;2022-11-23T02:47:22;95255.00;;;3.75;100.00
39243;BME280;29823;47.404;8.566;2022-11-23T02:49:50;95253.44;;;3.67;100.00
39243;BME280;29823;47.404;8.566;2022-11-23T02:52:18;95251.84;;;3.66;100.00
39243;BME280;29823;47.404;8.566;2022-11-23T02:54:46;95254.06;;;3.69;100.00
39243;BME280;29823;47.404;8.566;2022-11-23T02:57:14;95254.47;;;3.84;100.00
39243;BME280;29823;47.404;8.566;2022-11-23T02:59:41;95242.75;;;3.80;100.00
39243;BME280;29823;47.404;8.566;2022-11-23T03:02:10;95259.03;;;3.77;100.00
39243;BME280;29823;47.404;8.566;2022-11-23T03:04:38;95257.44;;;3.76;100.00
39243;BME280;29823;47.404;8.566;2022-11-23T03:07:06;95252.66;;;3.85;100.00
39243;BME280;29823;47.404;8.566;2022-11-23T03:09:34;95252.13;;;3.76;100.00
39243;BME280;29823;47.404;8.566;2022-11-23T03:12:02;95245.25;;;3.75;100.00
39243;BME280;29823;47.404;8.566;2022-11-23T03:14:29;95243.91;;;3.66;100.00
39243;BME280;29823;47.404;8.566;2022-11-23T03:16:57;95245.25;;;3.75;100.00
39243;BME280;29823;47.404;8.566;2022-11-23T03:19:27;95244.47;;;3.68;100.00
39243;BME280;29823;47.404;8.566;2022-11-23T03:21:55;95251.09;;;3.77;100.00
39243;BME280;29823;47.404;8.566;2022-11-23T03:24:22;95249.66;;;3.81;100.00
39243;BME280;29823;47.404;8.566;2022-11-23T03:26:50;95242.28;;;3.83;100.00
39243;BME280;29823;47.404;8.566;2022-11-23T03:29:18;95235.41;;;3.82;100.00
39243;BME280;29823;47.404;8.566;2022-11-23T03:31:46;95240.69;;;3.82;100.00
39243;BME280;29823;47.404;8.566;2022-11-23T03:34:14;95239.88;;;3.82;100.00
39243;BME280;29823;47.404;8.566;2022-11-23T03:36:43;95243.59;;;3.74;100.00
39243;BME280;29823;47.404;8.566;2022-11-23T03:39:11;95239.00;;;3.70;100.00
39243;BME280;29823;47.404;8.566;2022-11-23T03:41:39;95242.00;;;3.73;100.00
39243;BME280;29823;47.404;8.566;2022-11-23T03:44:06;95234.94;;;3.49;100.00
39243;BME280;29823;47.404;8.566;2022-11-23T03:46:34;95229.06;;;3.47;100.00
39243;BME280;29823;47.404;8.566;2022-11-23T03:49:02;95230.97;;;3.40;100.00
39243;BME280;29823;47.404;8.566;2022-11-23T03:51:30;95235.56;;;3.27;100.00
39243;BME280;29823;47.404;8.566;2022-11-23T03:53:59;95226.31;;;3.18;100.00
39243;BME280;29823;47.404;8.566;2022-11-23T03:56:27;95226.09;;;3.19;100.00
39243;BME280;29823;47.404;8.566;2022-11-23T03:58:54;95226.38;;;3.11;100.00
39243;BME280;29823;47.404;8.566;2022-11-23T04:01:22;95225.75;;;3.09;100.00
39243;BME280;29823;47.404;8.566;2022-11-23T04:03:50;95224.06;;;3.21;100.00
39243;BME280;29823;47.404;8.566;2022-11-23T04:06:18;95217.22;;;3.14;100.00
39243;BME280;29823;47.404;8.566;2022-11-23T04:08:46;95216.38;;;3.13;100.00
39243;BME280;29823;47.404;8.566;2022-11-23T04:11:15;95215.00;;;3.11;100.00
39243;BME280;29823;47.404;8.566;2022-11-23T04:13:43;95222.13;;;3.10;100.00
39243;BME280;29823;47.404;8.566;2022-11-23T04:16:11;95220.22;;;3.17;100.00
39243;BME280;29823;47.404;8.566;2022-11-23T04:18:38;95208.22;;;3.21;100.00
39243;BME280;29823;47.404;8.566;2022-11-23T04:21:07;95214.50;;;3.20;100.00
39243;BME280;29823;47.404;8.566;2022-11-23T04:23:34;95210.53;;;3.11;100.00
39243;BME280;29823;47.404;8.566;2022-11-23T04:26:02;95202.44;;;3.06;100.00
39243;BME280;29823;47.404;8.566;2022-11-23T04:28:31;95198.72;;;3.14;100.00
39243;BME280;29823;47.404;8.566;2022-11-23T04:30:59;95198.94;;;3.12;100.00
39243;BME280;29823;47.404;8.566;2022-11-23T04:33:27;95192.75;;;3.00;100.00
39243;BME280;29823;47.404;8.566;2022-11-23T04:35:57;95187.63;;;3.05;100.00
39243;BME280;29823;47.404;8.566;2022-11-23T04:38:25;95189.13;;;2.95;100.00
39243;BME280;29823;47.404;8.566;2022-11-23T04:40:52;95186.72;;;2.93;100.00
39243;BME280;29823;47.404;8.566;2022-11-23T04:43:20;95188.78;;;2.91;100.00
39243;BME280;29823;47.404;8.566;2022-11-23T04:45:49;95174.63;;;2.86;100.00
39243;BME280;29823;47.404;8.566;2022-11-23T04:48:17;95181.31;;;2.88;100.00
39243;BME280;29823;47.404;8.566;2022-11-23T04:50:45;95175.41;;;2.86;100.00
39243;BME280;29823;47.404;8.566;2022-11-23T04:53:16;95180.53;;;2.81;100.00
39243;BME280;29823;47.404;8.566;2022-11-23T04:55:45;95185.19;;;2.86;100.00
39243;BME280;29823;47.404;8.566;2022-11-23T04:58:13;95167.50;;;2.62;100.00
39243;BME280;29823;47.404;8.566;2022-11-23T05:00:40;95190.91;;;2.76;100.00
39243;BME280;29823;47.404;8.566;2022-11-23T05:03:10;95186.88;;;2.74;100.00
39243;BME280;29823;47.404;8.566;2022-11-23T05:05:38;95184.84;;;2.76;100.00
39243;BME280;29823;47.404;8.566;2022-11-23T05:08:07;95184.59;;;2.77;100.00
39243;BME280;29823;47.404;8.566;2022-11-23T05:10:48;95190.75;;;2.71;100.00
39243;BME280;29823;47.404;8.566;2022-11-23T05:13:16;95191.19;;;2.68;100.00
39243;BME280;29823;47.404;8.566;2022-11-23T05:15:44;95188.19;;;2.65;100.00
39243;BME280;29823;47.404;8.566;2022-11-23T05:18:13;95187.81;;;2.61;100.00
39243;BME280;29823;47.404;8.566;2022-11-23T05:20:41;95194.78;;;2.49;100.00
39243;BME280;29823;47.404;8.566;2022-11-23T05:23:09;95177.09;;;2.25;100.00
39243;BME280;29823;47.404;8.566;2022-11-23T05:25:37;95193.28;;;2.35;100.00
39243;BME280;29823;47.404;8.566;2022-11-23T05:28:05;95186.59;;;2.33;100.00
39243;BME280;29823;47.404;8.566;2022-11-23T05:30:52;95183.94;;;2.33;100.00
39243;BME280;29823;47.404;8.566;2022-11-23T05:33:21;95181.25;;;2.39;100.00
39243;BME280;29823;47.404;8.566;2022-11-23T05:35:49;95186.31;;;2.41;100.00
39243;BME280;29823;47.404;8.566;2022-11-23T05:38:17;95185.13;;;2.37;100.00
39243;BME280;29823;47.404;8.566;2022-11-23T05:40:45;95176.56;;;2.48;100.00
39243;BME280;29823;47.404;8.566;2022-11-23T05:43:12;95180.09;;;2.35;100.00
39243;BME280;29823;47.404;8.566;2022-11-23T05:45:40;95188.41;;;2.32;100.00
39243;BME280;29823;47.404;8.566;2022-11-23T05:48:08;95185.78;;;2.32;100.00
39243;BME280;29823;47.404;8.566;2022-11-23T05:50:37;95181.56;;;2.25;100.00
39243;BME280;29823;47.404;8.566;2022-11-23T05:53:05;95195.72;;;2.30;100.00
39243;BME280;29823;47.404;8.566;2022-11-23T05:55:33;95195.94;;;2.29;100.00
39243;BME280;29823;47.404;8.566;2022-11-23T05:58:00;95187.28;;;2.22;100.00
39243;BME280;29823;47.404;8.566;2022-11-23T06:00:29;95195.19;;;2.22;100.00
39243;BME280;29823;47.404;8.566;2022-11-23T06:02:58;95184.25;;;2.18;100.00
39243;BME280;29823;47.404;8.566;2022-11-23T06:05:27;95186.81;;;2.25;100.00
39243;BME280;29823;47.404;8.566;2022-11-23T06:07:56;95171.91;;;2.12;100.00
39243;BME280;29823;47.404;8.566;2022-11-23T06:10:24;95199.00;;;2.26;100.00
39243;BME280;29823;47.404;8.566;2022-11-23T06:12:51;95204.66;;;2.29;100.00
39243;BME280;29823;47.404;8.566;2022-11-23T06:15:19;95192.97;;;2.12;100.00
39243;BME280;29823;47.404;8.566;2022-11-23T06:17:47;95204.16;;;2.14;100.00
39243;BME280;29823;47.404;8.566;2022-11-23T06:20:15;95201.63;;;2.26;100.00
39243;BME280;29823;47.404;8.566;2022-11-23T06:22:43;95201.84;;;2.24;100.00
39243;BME280;29823;47.404;8.566;2022-11-23T06:25:12;95201.84;;;2.24;100.00
39243;BME280;29823;47.404;8.566;2022-11-23T06:27:40;95195.56;;;2.25;100.00
39243;BME280;29823;47.404;8.566;2022-11-23T06:30:09;95202.25;;;2.28;100.00
39243;BME280;29823;47.404;8.566;2022-11-23T06:32:37;95204.16;;;2.14;100.00
39243;BME280;29823;47.404;8.566;2022-11-23T06:35:05;95203.53;;;2.12;100.00
39243;BME280;29823;47.404;8.566;2022-11-23T06:37:33;95202.19;;;2.03;100.00
39243;BME280;29823;47.404;8.566;2022-11-23T06:40:00;95212.72;;;2.03;100.00
39243;BME280;29823;47.404;8.566;2022-11-23T06:42:29;95212.66;;;2.10;100.00
39243;BME280;29823;47.404;8.566;2022-11-23T06:45:06;95212.06;;;2.14;100.00
39243;BME280;29823;47.404;8.566;2022-11-23T06:47:34;95205.34;;;2.18;100.00
39243;BME280;29823;47.404;8.566;2022-11-23T06:50:02;95202.91;;;2.17;100.00
39243;BME280;29823;47.404;8.566;2022-11-23T06:52:31;95217.69;;;2.24;100.00
39243;BME280;29823;47.404;8.566;2022-11-23T06:54:58;95228.41;;;2.29;100.00
39243;BME280;29823;47.404;8.566;2022-11-23T06:57:26;95222.50;;;2.27;100.00
39243;BME280;29823;47.404;8.566;2022-11-23T06:59:55;95233.69;;;2.29;100.00
39243;BME280;29823;47.404;8.566;2022-11-23T07:02:23;95231.28;;;2.21;100.00
39243;BME280;29823;47.404;8.566;2022-11-23T07:04:51;95233.06;;;2.27;100.00
39243;BME280;29823;47.404;8.566;2022-11-23T07:07:18;95237.06;;;2.36;100.00
39243;BME280;29823;47.404;8.566;2022-11-23T07:09:46;95241.91;;;2.39;100.00
39243;BME280;29823;47.404;8.566;2022-11-23T07:12:14;95242.09;;;2.44;100.00
39243;BME280;29823;47.404;8.566;2022-11-23T07:14:42;95244.72;;;2.44;100.00
39243;BME280;29823;47.404;8.566;2022-11-23T07:17:11;95247.72;;;2.54;100.00
39243;BME280;29823;47.404;8.566;2022-11-23T07:19:42;95243.09;;;2.43;100.00
39243;BME280;29823;47.404;8.566;2022-11-23T07:22:10;95259.19;;;2.35;100.00
39243;BME280;29823;47.404;8.566;2022-11-23T07:24:38;95258.56;;;2.33;100.00
39243;BME280;29823;47.404;8.566;2022-11-23T07:27:12;95258.75;;;2.38;100.00
39243;BME280;29823;47.404;8.566;2022-11-23T07:29:40;95250.97;;;2.56;100.00
39243;BME280;29823;47.404;8.566;2022-11-23T07:32:07;95265.66;;;2.70;100.00
39243;BME280;29823;47.404;8.566;2022-11-23T07:34:36;95261.69;;;2.61;100.00
39243;BME280;29823;47.404;8.566;2022-11-23T07:37:04;95260.03;;;2.60;100.00
39243;BME280;29823;47.404;8.566;2022-11-23T07:39:32;95261.59;;;2.74;100.00
39243;BME280;29823;47.404;8.566;2022-11-23T07:42:20;95256.97;;;2.94;100.00
39243;BME280;29823;47.404;8.566;2022-11-23T07:45:01;95265.00;;;3.06;100.00
39243;BME280;29823;47.404;8.566;2022-11-23T07:47:29;95262.16;;;3.07;100.00
39243;BME280;29823;47.404;8.566;2022-11-23T07:49:58;95259.81;;;3.17;100.00
39243;BME280;29823;47.404;8.566;2022-11-23T07:52:26;95260.00;;;3.22;100.00
39243;BME280;29823;47.404;8.566;2022-11-23T07:54:54;95254.25;;;3.25;100.00
39243;BME280;29823;47.404;8.566;2022-11-23T07:57:22;95245.88;;;3.35;100.00
39243;BME280;29823;47.404;8.566;2022-11-23T07:59:50;95233.44;;;3.35;100.00
39243;BME280;29823;47.404;8.566;2022-11-23T08:02:17;95235.81;;;3.43;100.00
39243;BME280;29823;47.404;8.566;2022-11-23T08:04:45;95233.34;;;3.48;100.00
39243;BME280;29823;47.404;8.566;2022-11-23T08:07:14;95235.31;;;3.53;100.00
39243;BME280;29823;47.404;8.566;2022-11-23T08:09:42;95231.56;;;3.60;100.00
39243;BME280;29823;47.404;8.566;2022-11-23T08:12:10;95234.38;;;3.65;100.00
39243;BME280;29823;47.404;8.566;2022-11-23T08:14:38;95235.09;;;3.72;100.00
39243;BME280;29823;47.404;8.566;2022-11-23T08:17:05;95229.59;;;3.74;100.00
39243;BME280;29823;47.404;8.566;2022-11-23T08:19:34;95231.78;;;3.77;100.00
39243;BME280;29823;47.404;8.566;2022-11-23T08:22:01;95227.31;;;3.77;100.00
39243;BME280;29823;47.404;8.566;2022-11-23T08:24:30;95234.50;;;3.88;100.00
39243;BME280;29823;47.404;8.566;2022-11-23T08:26:59;95224.50;;;3.90;100.00
39243;BME280;29823;47.404;8.566;2022-11-23T08:29:28;95228.47;;;3.99;100.00
39243;BME280;29823;47.404;8.566;2022-11-23T08:31:56;95229.66;;;4.03;100.00
39243;BME280;29823;47.404;8.566;2022-11-23T08:34:24;95217.00;;;4.05;100.00
39243;BME280;29823;47.404;8.566;2022-11-23T08:36:52;95217.16;;;4.10;100.00
39243;BME280;29823;47.404;8.566;2022-11-23T08:39:20;95215.19;;;4.06;100.00
39243;BME280;29823;47.404;8.566;2022-11-23T08:41:49;95209.06;;;4.05;100.00
39243;BME280;29823;47.404;8.566;2022-11-23T08:44:17;95208.22;;;3.93;100.00
39243;BME280;29823;47.404;8.566;2022-11-23T08:46:45;95225.84;;;3.99;100.00
39243;BME280;29823;47.404;8.566;2022-11-23T08:49:13;95223.25;;;3.93;100.00
39243;BME280;29823;47.404;8.566;2022-11-23T08:51:41;95235.53;;;4.05;100.00
39243;BME280;29823;47.404;8.566;2022-11-23T08:54:15;95226.81;;;4.05;100.00
39243;BME280;29823;47.404;8.566;2022-11-23T08:56:43;95227.91;;;3.97;100.00
39243;BME280;29823;47.404;8.566;2022-11-23T08:59:12;95223.75;;;4.01;100.00
39243;BME280;29823;47.404;8.566;2022-11-23T09:01:40;95233.69;;;4.06;100.00
39243;BME280;29823;47.404;8.566;2022-11-23T09:04:07;95231.34;;;3.98;100.00
39243;BME280;29823;47.404;8.566;2022-11-23T09:06:35;95234.94;;;4.03;100.00
39243;BME280;29823;47.404;8.566;2022-11-23T09:09:03;95224.28;;;4.10;100.00
39243;BME280;29823;47.404;8.566;2022-11-23T09:11:31;95218.75;;;4.11;100.00
39243;BME280;29823;47.404;8.566;2022-11-23T09:13:59;95226.63;;;4.18;100.00
39243;BME280;29823;47.404;8.566;2022-11-23T09:16:28;95231.41;;;4.68;100.00
39243;BME280;29823;47.404;8.566;2022-11-23T09:18:59;95228.09;;;4.43;100.00
39243;BME280;29823;47.404;8.566;2022-11-23T09:21:27;95230.09;;;4.48;100.00
39243;BME280;29823;47.404;8.566;2022-11-23T09:23:58;95227.66;;;4.46;100.00
39243;BME280;29823;47.404;8.566;2022-11-23T09:26:26;95224.13;;;4.52;100.00
39243;BME280;29823;47.404;8.566;2022-11-23T09:28:55;95221.91;;;4.49;100.00
39243;BME280;29823;47.404;8.566;2022-11-23T09:31:23;95236.00;;;4.61;100.00
39243;BME280;29823;47.404;8.566;2022-11-23T09:33:55;95225.00;;;4.76;100.00
39243;BME280;29823;47.404;8.566;2022-11-23T09:36:23;95227.91;;;4.86;100.00
39243;BME280;29823;47.404;8.566;2022-11-23T09:38:51;95229.16;;;4.83;100.00
39243;BME280;29823;47.404;8.566;2022-11-23T09:44:21;95244.69;;;4.80;100.00
39243;BME280;29823;47.404;8.566;2022-11-23T09:46:59;95234.00;;;4.86;100.00
39243;BME280;29823;47.404;8.566;2022-11-23T09:49:38;95231.56;;;4.85;100.00
39243;BME280;29823;47.404;8.566;2022-11-23T09:52:14;95237.94;;;4.95;100.00
39243;BME280;29823;47.404;8.566;2022-11-23T09:54:45;95237.84;;;5.02;100.00
39243;BME280;29823;47.404;8.566;2022-11-23T09:57:18;95237.47;;;4.98;100.00
39243;BME280;29823;47.404;8.566;2022-11-23T09:59:49;95222.25;;;4.94;100.00
39243;BME280;29823;47.404;8.566;2022-11-23T10:02:22;95234.94;;;5.03;100.00
39243;BME280;29823;47.404;8.566;2022-11-23T10:04:52;95231.97;;;5.11;100.00
39243;BME280;29823;47.404;8.566;2022-11-23T10:07:31;95231.28;;;5.16;100.00
39243;BME280;29823;47.404;8.566;2022-11-23T10:10:09;95223.25;;;5.34;100.00
39243;BME280;29823;47.404;8.566;2022-11-23T10:12:46;95220.47;;;5.52;100.00
39243;BME280;29823;47.404;8.566;2022-11-23T10:15:22;95218.84;;;5.62;100.00
39243;BME280;29823;47.404;8.566;2022-11-23T10:18:04;95226.66;;;6.03;100.00
39243;BME280;29823;47.404;8.566;2022-11-23T10:20:42;95225.16;;;5.84;100.00
39243;BME280;29823;47.404;8.566;2022-11-23T10:23:24;95215.59;;;6.06;100.00
39243;BME280;29823;47.404;8.566;2022-11-23T10:25:56;95217.00;;;6.25;100.00
39243;BME280;29823;47.404;8.566;2022-11-23T10:28:28;95205.88;;;6.40;100.00
39243;BME280;29823;47.404;8.566;2022-11-23T10:31:03;95212.13;;;6.62;100.00
39243;BME280;29823;47.404;8.566;2022-11-23T10:33:38;95203.53;;;6.15;100.00
39243;BME280;29823;47.404;8.566;2022-11-23T10:36:10;95209.69;;;6.04;100.00
39243;BME280;29823;47.404;8.566;2022-11-23T10:38:39;95205.50;;;6.20;100.00
39243;BME280;29823;47.404;8.566;2022-11-23T10:41:09;95209.88;;;6.26;100.00
39243;BME280;29823;47.404;8.566;2022-11-23T10:43:42;95211.25;;;6.28;100.00
39243;BME280;29823;47.404;8.566;2022-11-23T10:46:28;95213.41;;;6.31;100.00
39243;BME280;29823;47.404;8.566;2022-11-23T10:49:11;95212.19;;;6.22;100.00
39243;BME280;29823;47.404;8.566;2022-11-23T10:51:48;95205.25;;;6.21;100.00
39243;BME280;29823;47.404;8.566;2022-11-23T10:54:20;95206.94;;;6.27;100.00
39243;BME280;29823;47.404;8.566;2022-11-23T10:56:50;95198.53;;;6.30;100.00
39243;BME280;29823;47.404;8.566;2022-11-23T10:59:26;95187.81;;;6.25;100.00
39243;BME280;29823;47.404;8.566;2022-11-23T11:02:00;95193.72;;;6.55;100.00
39243;BME280;29823;47.404;8.566;2022-11-23T11:04:28;95191.56;;;6.41;100.00
39243;BME280;29823;47.404;8.566;2022-11-23T11:07:17;95164.84;;;6.31;100.00
39243;BME280;29823;47.404;8.566;2022-11-23T11:09:50;95172.16;;;6.68;100.00
39243;BME280;29823;47.404;8.566;2022-11-23T11:12:18;95164.59;;;6.77;100.00
39243;BME280;29823;47.404;8.566;2022-11-23T11:15:01;95167.66;;;6.69;100.00
39243;BME280;29823;47.404;8.566;2022-11-23T11:17:37;95165.97;;;6.63;100.00
39243;BME280;29823;47.404;8.566;2022-11-23T11:20:31;95173.16;;;6.23;100.00
39243;BME280;29823;47.404;8.566;2022-11-23T11:23:02;95168.28;;;6.03;100.00
39243;BME280;29823;47.404;8.566;2022-11-23T11:25:33;95169.56;;;6.01;100.00
39243;BME280;29823;47.404;8.566;2022-11-23T11:28:03;95168.63;;;6.07;100.00
39243;BME280;29823;47.404;8.566;2022-11-23T11:30:39;95164.22;;;6.12;100.00
39243;BME280;29823;47.404;8.566;2022-11-23T11:33:14;95161.22;;;6.09;100.00
39243;BME280;29823;47.404;8.566;2022-11-23T11:35:46;95156.84;;;6.03;100.00
39243;BME280;29823;47.404;8.566;2022-11-23T11:38:21;95160.69;;;5.95;100.00
39243;BME280;29823;47.404;8.566;2022-11-23T11:40:53;95160.03;;;5.88;100.00
39243;BME280;29823;47.404;8.566;2022-11-23T11:43:26;95155.22;;;5.85;100.00
39243;BME280;29823;47.404;8.566;2022-11-23T11:46:05;95145.22;;;6.04;100.00
39243;BME280;29823;47.404;8.566;2022-11-23T11:48:58;95142.06;;;5.90;100.00
39243;BME280;29823;47.404;8.566;2022-11-23T11:51:31;95139.47;;;5.95;100.00
39243;BME280;29823;47.404;8.566;2022-11-23T11:54:04;95123.66;;;6.00;100.00
39243;BME280;29823;47.404;8.566;2022-11-23T11:56:40;95097.97;;;5.89;100.00
39243;BME280;29823;47.404;8.566;2022-11-23T11:59:13;95119.50;;;6.04;100.00
39243;BME280;29823;47.404;8.566;2022-11-23T12:01:49;95126.56;;;6.43;100.00
39243;BME280;29823;47.404;8.566;2022-11-23T12:04:23;95130.22;;;6.54;100.00
39243;BME280;29823;47.404;8.566;2022-11-23T12:06:59;95124.50;;;6.45;100.00
39243;BME280;29823;47.404;8.566;2022-11-23T12:09:35;95128.56;;;6.36;100.00
39243;BME280;29823;47.404;8.566;2022-11-23T12:12:11;95134.00;;;6.58;100.00
39243;BME280;29823;47.404;8.566;2022-11-23T12:14:39;95138.50;;;6.57;100.00
39243;BME280;29823;47.404;8.566;2022-11-23T12:17:12;95136.41;;;6.59;100.00
39243;BME280;29823;47.404;8.566;2022-11-23T12:20:05;95130.91;;;6.33;100.00
39243;BME280;29823;47.404;8.566;2022-11-23T12:22:44;95126.22;;;6.23;100.00
39243;BME280;29823;47.404;8.566;2022-11-23T12:25:27;95118.34;;;6.28;100.00
39243;BME280;29823;47.404;8.566;2022-11-23T12:28:08;95124.63;;;6.39;100.00
39243;BME280;29823;47.404;8.566;2022-11-23T12:30:50;95128.66;;;6.41;100.00
39243;BME280;29823;47.404;8.566;2022-11-23T12:33:46;95123.91;;;6.43;100.00
39243;BME280;29823;47.404;8.566;2022-11-23T12:36:37;95120.06;;;6.34;100.00
39243;BME280;29823;47.404;8.566;2022-11-23T12:39:22;95129.75;;;6.29;100.00
39243;BME280;29823;47.404;8.566;2022-11-23T12:42:00;95121.00;;;6.28;100.00
39243;BME280;29823;47.404;8.566;2022-11-23T12:44:48;95114.44;;;6.31;100.00
39243;BME280;29823;47.404;8.566;2022-11-23T12:47:29;95112.56;;;6.31;100.00
39243;BME280;29823;47.404;8.566;2022-11-23T12:50:07;95114.66;;;6.46;100.00
39243;BME280;29823;47.404;8.566;2022-11-23T12:52:52;95118.03;;;6.41;100.00
39243;BME280;29823;47.404;8.566;2022-11-23T12:55:22;95108.47;;;6.40;100.00
39243;BME280;29823;47.404;8.566;2022-11-23T12:57:57;95109.84;;;6.43;100.00
39243;BME280;29823;47.404;8.566;2022-11-23T13:00:31;95106.47;;;6.47;100.00
39243;BME280;29823;47.404;8.566;2022-11-23T13:06:32;95097.06;;;6.56;100.00
39243;BME280;29823;47.404;8.566;2022-11-23T13:09:29;95096.34;;;6.77;100.00
39243;BME280;29823;47.404;8.566;2022-11-23T13:12:11;95094.25;;;6.96;100.00
39243;BME280;29823;47.404;8.566;2022-11-23T13:14:52;95090.00;;;7.33;100.00
39243;BME280;29823;47.404;8.566;2022-11-23T13:17:29;95087.91;;;7.78;100.00
39243;BME280;29823;47.404;8.566;2022-11-23T13:20:11;95090.06;;;8.02;100.00
39243;BME280;29823;47.404;8.566;2022-11-23T13:22:42;95088.88;;;8.15;100.00
39243;BME280;29823;47.404;8.566;2022-11-23T13:25:20;95096.91;;;8.46;100.00